Etusivu
METAR-TAF:

METAR-TAF

Lentoasemat :

David Wayne Hooks Memorial Airport

Houston / Tomball, Texas, Yhdysvallat

Leveyspiiri: 30-04-03N, Pituuspiiri: 095-33-22W, korkeus merenpinnasta: 46 m

Tämänhetkinen sää

Tämä raportti tehtiin 20 minuuttia sitten, kello 16.53 UTC
Tuuli 11 kn pohjoisesta puuskistuen 24 kn:hen
Lämpötila 14°C
Kosteus 88%
Ilmanpaine 1019 hPa
Näkyvyys: 16.1 km
Pilvistä 1400 ft:n korkeudessa

METAR: KDWH 011653Z 01011G24KT 10SM OVC014 14/12 A3008 RMK AO2 SLP185 T01440117

Aika: 11:13 (17:13 UTC)


TAF: puuttuu

Säähavainnot ja -ennusteet yli 4000 lentoasemalta (METAR- ja TAF-raportit).

Käytössä olevat sääasemat on merkitty karttaan keltaisilla ja punaisilla pisteillä.

Aseta hiiri pisteen päälle nähdäksesi sääaseman nimen.

Klikkaa sitten nähdäksesi säähavainnot ja -ennusteet.

Kartan vaihtaminen: klikkaa mustalla rastilla varustettuja vihreitä pisteitä, niin voit zoomata sisään; viivalla varustettua vihreää pistettä, niin voit zoomata ulos tai vihreitä nuolia, niin pääset viereisille kartoille.


METAR-TAF: